Time;durP1;ratioP1;P1;durP2;ratioP2;P2;SDS_P1;SDS_P2;PMS_P1;PMS_P2;Temp;Humidity;BMP_temperature;BMP_pressure;BME280_temperature;BME280_humidity;BME280_pressure;Samples;Min_cycle;Max_cycle;Signal;HPM_P1;HPM_P2
2024/01/23 00:01:12;;;;;;;7.40;1.80;;;;;;;;;;5096099;28;20881;-65
2024/01/23 00:03:38;;;;;;;3.50;1.30;;;;;;;;;;5096476;28;20479;-65
2024/01/23 00:06:06;;;;;;;3.27;1.40;;;;;;;;;;5097583;28;20467;-65
2024/01/23 00:08:33;;;;;;;6.23;1.33;;;;;;;;;;5094178;28;20913;-65
2024/01/23 00:10:59;;;;;;;1.93;1.27;;;;;;;;;;5087655;28;20463;-65
2024/01/23 00:13:26;;;;;;;5.63;1.47;;;;;;;;;;5096523;28;20474;-66
2024/01/23 00:15:52;;;;;;;3.87;1.27;;;;;;;;;;5100736;28;20502;-65
2024/01/23 00:18:19;;;;;;;4.07;1.50;;;;;;;;;;5099263;28;20463;-65
2024/01/23 00:20:46;;;;;;;7.00;1.67;;;;;;;;;;5086159;28;20486;-65
2024/01/23 00:23:14;;;;;;;8.30;1.40;;;;;;;;;;5089628;28;20604;-65
2024/01/23 00:25:41;;;;;;;4.10;1.57;;;;;;;;;;5091101;28;20474;-65
2024/01/23 00:28:07;;;;;;;4.40;1.70;;;;;;;;;;5095924;28;20566;-65
2024/01/23 00:30:33;;;;;;;9.17;1.93;;;;;;;;;;5092313;28;20500;-65
2024/01/23 00:32:59;;;;;;;10.23;1.67;;;;;;;;;;5094948;28;20938;-65
2024/01/23 00:35:25;;;;;;;7.40;2.43;;;;;;;;;;5091371;28;20461;-65
2024/01/23 00:37:52;;;;;;;4.63;1.90;;;;;;;;;;5101953;28;20276;-65
2024/01/23 00:40:20;;;;;;;6.53;2.23;;;;;;;;;;5089038;28;20487;-65
2024/01/23 00:42:47;;;;;;;5.33;2.03;;;;;;;;;;5088732;28;20439;-65
2024/01/23 00:45:13;;;;;;;6.00;2.53;;;;;;;;;;5096639;28;20459;-65
2024/01/23 00:47:39;;;;;;;16.67;2.30;;;;;;;;;;5086184;28;20807;-65
2024/01/23 00:50:06;;;;;;;7.43;2.10;;;;;;;;;;5094712;28;20447;-65
2024/01/23 00:52:33;;;;;;;9.50;2.93;;;;;;;;;;5094576;28;21039;-65
2024/01/23 00:55:02;;;;;;;11.90;2.33;;;;;;;;;;5088241;28;20491;-64
2024/01/23 00:57:30;;;;;;;10.80;3.23;;;;;;;;;;5092852;28;20486;-65
2024/01/23 00:59:57;;;;;;;9.30;2.83;;;;;;;;;;5095887;28;20459;-64
2024/01/23 01:02:23;;;;;;;8.00;2.90;;;;;;;;;;5093857;28;20474;-65
2024/01/23 01:04:50;;;;;;;9.57;2.83;;;;;;;;;;5094292;28;20474;-65
2024/01/23 01:07:16;;;;;;;7.37;3.03;;;;;;;;;;5091603;28;20451;-65
2024/01/23 01:09:42;;;;;;;15.17;2.80;;;;;;;;;;5096548;28;20490;-65
2024/01/23 01:12:09;;;;;;;15.07;3.07;;;;;;;;;;5091159;28;20475;-65
2024/01/23 01:14:37;;;;;;;8.77;3.03;;;;;;;;;;5089400;28;20891;-65
2024/01/23 01:17:04;;;;;;;11.70;3.20;;;;;;;;;;5087382;28;20477;-64
2024/01/23 01:19:30;;;;;;;13.23;3.90;;;;;;;;;;5105456;28;20454;-64
2024/01/23 01:21:56;;;;;;;11.93;3.97;;;;;;;;;;5103427;28;20481;-64
2024/01/23 01:24:23;;;;;;;8.87;3.03;;;;;;;;;;5092007;28;20447;-65
2024/01/23 01:26:49;;;;;;;16.63;4.60;;;;;;;;;;5088789;28;20481;-64
2024/01/23 01:29:16;;;;;;;12.87;3.20;;;;;;;;;;5093646;28;20479;-65
2024/01/23 01:31:44;;;;;;;10.33;3.00;;;;;;;;;;5094624;28;20448;-64
2024/01/23 01:34:10;;;;;;;9.77;2.77;;;;;;;;;;5097078;28;20527;-64
2024/01/23 01:36:37;;;;;;;13.73;3.00;;;;;;;;;;5094424;28;20490;-64
2024/01/23 01:39:04;;;;;;;19.80;4.07;;;;;;;;;;5091863;28;20515;-64
2024/01/23 01:41:30;;;;;;;17.03;3.20;;;;;;;;;;5095462;28;20475;-64
2024/01/23 01:43:56;;;;;;;13.10;3.50;;;;;;;;;;5091952;28;20451;-64
2024/01/23 01:46:24;;;;;;;18.97;3.30;;;;;;;;;;5102698;28;20446;-64
2024/01/23 01:48:52;;;;;;;13.37;3.30;;;;;;;;;;5096038;28;20207;-64
2024/01/23 01:51:20;;;;;;;13.50;3.50;;;;;;;;;;5085292;28;20471;-64
2024/01/23 01:53:48;;;;;;;14.67;3.33;;;;;;;;;;5087297;28;20558;-65
2024/01/23 01:56:15;;;;;;;11.47;3.50;;;;;;;;;;5086769;28;20467;-64
2024/01/23 01:58:42;;;;;;;10.80;3.47;;;;;;;;;;5090014;28;20463;-65
2024/01/23 02:01:10;;;;;;;17.07;2.83;;;;;;;;;;5089242;28;20462;-65
2024/01/23 02:03:37;;;;;;;12.53;2.43;;;;;;;;;;5086982;28;20923;-65
2024/01/23 02:06:06;;;;;;;8.57;3.03;;;;;;;;;;5087656;28;20509;-64
2024/01/23 02:08:33;;;;;;;7.40;2.40;;;;;;;;;;5096792;28;20517;-64
2024/01/23 02:11:00;;;;;;;6.00;2.33;;;;;;;;;;5096785;28;20958;-64
2024/01/23 02:13:27;;;;;;;19.70;3.97;;;;;;;;;;5101161;28;20508;-64
2024/01/23 02:15:53;;;;;;;5.23;2.73;;;;;;;;;;5098075;28;20443;-64
2024/01/23 02:18:20;;;;;;;7.57;2.53;;;;;;;;;;5100672;28;20450;-64
2024/01/23 02:20:46;;;;;;;3.93;2.13;;;;;;;;;;5097463;28;20475;-64
2024/01/23 02:23:14;;;;;;;5.30;1.87;;;;;;;;;;5104472;28;20897;-64
2024/01/23 02:25:42;;;;;;;6.80;2.17;;;;;;;;;;5095206;28;20475;-64
2024/01/23 02:28:09;;;;;;;7.30;2.40;;;;;;;;;;5097478;28;20467;-66
2024/01/23 02:30:35;;;;;;;5.60;2.90;;;;;;;;;;5095925;28;20532;-67
2024/01/23 02:33:03;;;;;;;8.30;3.00;;;;;;;;;;5087180;28;20507;-67
2024/01/23 02:35:29;;;;;;;8.53;2.80;;;;;;;;;;5095569;28;20459;-67
2024/01/23 02:37:56;;;;;;;7.43;2.57;;;;;;;;;;5102818;28;20454;-67
2024/01/23 02:40:22;;;;;;;13.43;3.40;;;;;;;;;;5106556;28;20545;-66
2024/01/23 02:42:50;;;;;;;9.40;2.37;;;;;;;;;;5093671;28;21129;-67
2024/01/23 02:45:16;;;;;;;8.23;3.17;;;;;;;;;;5089920;28;20478;-66
2024/01/23 02:47:43;;;;;;;14.00;2.67;;;;;;;;;;5095458;28;20566;-66
2024/01/23 02:50:09;;;;;;;5.70;2.53;;;;;;;;;;5097669;28;20519;-67
2024/01/23 02:52:36;;;;;;;7.43;2.83;;;;;;;;;;5097313;28;20493;-67
2024/01/23 02:55:03;;;;;;;7.93;2.67;;;;;;;;;;5100178;28;20489;-67
2024/01/23 02:57:30;;;;;;;4.83;2.30;;;;;;;;;;5093971;28;20462;-68
2024/01/23 02:59:57;;;;;;;8.60;3.87;;;;;;;;;;5088264;28;20467;-68
2024/01/23 03:02:24;;;;;;;7.17;2.40;;;;;;;;;;5094936;28;20455;-68
2024/01/23 03:04:50;;;;;;;9.47;2.80;;;;;;;;;;5098181;28;20483;-67
2024/01/23 03:07:17;;;;;;;10.13;2.40;;;;;;;;;;5094744;28;20485;-67
2024/01/23 03:09:44;;;;;;;11.27;3.60;;;;;;;;;;5097744;28;20475;-67
2024/01/23 03:12:16;;;;;;;9.50;2.00;;;;;;;;;;5097011;28;20450;-67
2024/01/23 03:14:43;;;;;;;3.00;2.20;;;;;;;;;;5092230;28;20522;-67
2024/01/23 03:17:11;;;;;;;4.10;2.10;;;;;;;;;;5095837;28;20723;-67
2024/01/23 03:19:38;;;;;;;11.70;3.03;;;;;;;;;;5094358;28;20460;-67
2024/01/23 03:22:05;;;;;;;9.30;2.40;;;;;;;;;;5090974;28;20488;-67
2024/01/23 03:24:31;;;;;;;6.43;2.50;;;;;;;;;;5096392;28;20446;-67
2024/01/23 03:26:58;;;;;;;6.33;2.20;;;;;;;;;;5095982;28;20540;-67
2024/01/23 03:29:25;;;;;;;4.77;2.27;;;;;;;;;;5091312;28;20458;-67
2024/01/23 03:31:52;;;;;;;10.00;2.90;;;;;;;;;;5090642;28;20431;-67
2024/01/23 03:34:20;;;;;;;11.20;2.43;;;;;;;;;;5095337;28;20577;-67
2024/01/23 03:36:47;;;;;;;8.53;2.73;;;;;;;;;;5097626;28;20490;-66
2024/01/23 03:39:14;;;;;;;9.40;2.43;;;;;;;;;;5090753;28;20479;-66
2024/01/23 03:41:41;;;;;;;13.10;2.80;;;;;;;;;;5096430;28;20451;-67
2024/01/23 03:44:08;;;;;;;13.83;2.70;;;;;;;;;;5096884;28;20455;-68
2024/01/23 03:46:34;;;;;;;8.80;3.17;;;;;;;;;;5096251;28;20435;-67
2024/01/23 03:49:01;;;;;;;15.40;2.80;;;;;;;;;;5093897;28;20498;-67
2024/01/23 03:51:27;;;;;;;17.30;2.87;;;;;;;;;;5095903;28;21054;-68
2024/01/23 03:53:55;;;;;;;13.37;3.00;;;;;;;;;;5097355;28;20558;-67
2024/01/23 03:56:22;;;;;;;9.97;3.37;;;;;;;;;;5086143;28;20483;-67
2024/01/23 03:58:48;;;;;;;16.47;3.10;;;;;;;;;;5095101;28;20471;-67
2024/01/23 04:01:15;;;;;;;11.30;2.83;;;;;;;;;;5103583;28;20757;-67
2024/01/23 04:03:41;;;;;;;12.50;3.47;;;;;;;;;;5086295;28;20451;-67
2024/01/23 04:06:08;;;;;;;12.70;5.43;;;;;;;;;;5094081;28;21079;-67
2024/01/23 04:08:34;;;;;;;14.60;4.20;;;;;;;;;;5096515;28;20596;-67
2024/01/23 04:11:02;;;;;;;19.40;3.30;;;;;;;;;;5095996;28;20487;-67
2024/01/23 04:13:28;;;;;;;15.80;4.53;;;;;;;;;;5097610;28;20525;-67
2024/01/23 04:15:54;;;;;;;16.13;3.73;;;;;;;;;;5094974;28;20483;-66
2024/01/23 04:18:21;;;;;;;8.70;3.60;;;;;;;;;;5097350;28;21092;-66
2024/01/23 04:20:47;;;;;;;12.20;5.00;;;;;;;;;;5096250;28;20519;-66
2024/01/23 04:23:14;;;;;;;12.77;3.20;;;;;;;;;;5091467;28;20447;-66
2024/01/23 04:25:40;;;;;;;15.57;3.93;;;;;;;;;;5096190;28;20468;-67
2024/01/23 04:28:08;;;;;;;22.87;3.93;;;;;;;;;;5099742;28;20456;-66
2024/01/23 04:30:34;;;;;;;16.97;3.77;;;;;;;;;;5097596;28;21050;-66
2024/01/23 04:33:01;;;;;;;13.40;4.10;;;;;;;;;;5095119;28;20483;-67
2024/01/23 04:35:27;;;;;;;12.33;3.17;;;;;;;;;;5096926;28;20526;-66
2024/01/23 04:37:54;;;;;;;15.87;3.10;;;;;;;;;;5096802;28;20486;-66
2024/01/23 04:40:20;;;;;;;14.17;3.73;;;;;;;;;;5101536;28;20601;-67
2024/01/23 04:42:47;;;;;;;16.50;3.60;;;;;;;;;;5094326;28;20466;-67
2024/01/23 04:45:15;;;;;;;13.60;3.10;;;;;;;;;;5090971;28;20500;-66
2024/01/23 04:47:41;;;;;;;18.53;4.00;;;;;;;;;;5090105;28;20460;-67
2024/01/23 04:50:08;;;;;;;9.30;3.03;;;;;;;;;;5095601;28;20455;-67
2024/01/23 04:52:35;;;;;;;16.40;5.40;;;;;;;;;;5093359;28;20495;-67
2024/01/23 04:55:02;;;;;;;11.77;3.40;;;;;;;;;;5097998;28;20467;-67
2024/01/23 04:57:31;;;;;;;13.23;3.30;;;;;;;;;;5089910;28;20454;-67
2024/01/23 04:59:58;;;;;;;16.67;4.87;;;;;;;;;;5097736;28;20471;-67
2024/01/23 05:02:26;;;;;;;15.93;4.27;;;;;;;;;;5093452;28;20498;-67
2024/01/23 05:04:52;;;;;;;14.93;3.77;;;;;;;;;;5097179;28;20455;-67
2024/01/23 05:07:19;;;;;;;14.83;3.17;;;;;;;;;;5095513;28;21142;-67
2024/01/23 05:09:45;;;;;;;18.00;3.60;;;;;;;;;;5097864;28;20479;-67
2024/01/23 05:12:12;;;;;;;9.27;3.30;;;;;;;;;;5093531;28;20452;-67
2024/01/23 05:14:38;;;;;;;11.53;3.63;;;;;;;;;;5099660;28;20505;-67
2024/01/23 05:17:04;;;;;;;15.30;3.30;;;;;;;;;;5097188;28;20466;-67
2024/01/23 05:19:32;;;;;;;18.57;3.70;;;;;;;;;;5097083;28;20467;-68
2024/01/23 05:21:59;;;;;;;13.57;4.00;;;;;;;;;;5094501;28;20506;-67
2024/01/23 05:24:27;;;;;;;13.67;4.07;;;;;;;;;;5097357;28;20470;-68
2024/01/23 05:26:53;;;;;;;17.53;4.20;;;;;;;;;;5096958;28;20479;-67
2024/01/23 05:29:20;;;;;;;22.93;4.70;;;;;;;;;;5096645;28;20518;-67
2024/01/23 05:31:46;;;;;;;15.00;4.20;;;;;;;;;;5097199;28;20471;-67
2024/01/23 05:34:12;;;;;;;17.83;6.10;;;;;;;;;;5097235;28;20547;-68
2024/01/23 05:36:40;;;;;;;15.90;7.50;;;;;;;;;;5089330;28;20491;-67
2024/01/23 05:39:07;;;;;;;12.37;3.73;;;;;;;;;;5094236;28;20547;-67
2024/01/23 05:41:33;;;;;;;15.70;3.83;;;;;;;;;;5094122;28;20504;-67
2024/01/23 05:43:59;;;;;;;14.90;3.87;;;;;;;;;;5099083;28;20454;-66
2024/01/23 05:46:27;;;;;;;16.73;3.50;;;;;;;;;;5105834;28;20467;-67
2024/01/23 05:48:53;;;;;;;13.63;3.17;;;;;;;;;;5097061;28;20452;-67
2024/01/23 05:51:20;;;;;;;17.90;4.83;;;;;;;;;;5099908;28;20458;-67
2024/01/23 05:53:47;;;;;;;19.10;4.23;;;;;;;;;;5098013;28;20510;-67
2024/01/23 05:56:14;;;;;;;12.63;3.87;;;;;;;;;;5101210;28;20439;-67
2024/01/23 05:58:42;;;;;;;24.20;4.67;;;;;;;;;;5100808;28;20499;-67
2024/01/23 06:01:08;;;;;;;15.80;3.97;;;;;;;;;;5098935;28;20490;-67
2024/01/23 06:03:35;;;;;;;12.27;3.83;;;;;;;;;;5098860;28;20444;-66
2024/01/23 06:06:01;;;;;;;18.23;4.40;;;;;;;;;;5103363;28;20471;-67
2024/01/23 06:08:28;;;;;;;15.73;4.30;;;;;;;;;;5098191;28;20463;-68
2024/01/23 06:10:55;;;;;;;24.53;4.90;;;;;;;;;;5106833;28;20483;-68
2024/01/23 06:13:22;;;;;;;14.43;4.57;;;;;;;;;;5099655;28;20455;-69
2024/01/23 06:15:48;;;;;;;18.30;4.27;;;;;;;;;;5100194;28;20555;-69
2024/01/23 06:18:15;;;;;;;12.90;3.27;;;;;;;;;;5098395;28;20462;-69
2024/01/23 06:20:42;;;;;;;12.83;3.63;;;;;;;;;;5099759;28;20794;-67
2024/01/23 06:23:09;;;;;;;10.70;3.33;;;;;;;;;;5092240;28;20546;-68
2024/01/23 06:25:35;;;;;;;17.70;3.73;;;;;;;;;;5090646;28;20512;-68
2024/01/23 06:28:04;;;;;;;15.53;4.93;;;;;;;;;;5094984;28;20471;-68
2024/01/23 06:30:30;;;;;;;19.53;3.93;;;;;;;;;;5094058;28;20466;-68
2024/01/23 06:32:57;;;;;;;14.20;3.70;;;;;;;;;;5096583;28;20459;-68
2024/01/23 06:35:23;;;;;;;17.00;4.57;;;;;;;;;;5090211;28;20903;-67
2024/01/23 06:37:49;;;;;;;14.10;4.30;;;;;;;;;;5096382;28;20462;-67
2024/01/23 06:40:16;;;;;;;11.03;4.10;;;;;;;;;;5100104;28;20474;-68
2024/01/23 06:42:43;;;;;;;18.70;4.20;;;;;;;;;;5100319;28;20451;-67
2024/01/23 06:45:11;;;;;;;15.87;4.40;;;;;;;;;;5093776;28;20446;-68
2024/01/23 06:47:37;;;;;;;17.50;4.40;;;;;;;;;;5094670;28;20466;-67
2024/01/23 06:50:04;;;;;;;11.43;3.50;;;;;;;;;;5093142;28;20483;-67
2024/01/23 06:52:30;;;;;;;15.27;3.50;;;;;;;;;;5090067;28;20468;-68
2024/01/23 06:54:57;;;;;;;14.10;3.83;;;;;;;;;;5093064;28;21079;-67
2024/01/23 06:57:24;;;;;;;14.87;3.77;;;;;;;;;;5095738;28;20526;-67
2024/01/23 06:59:50;;;;;;;12.77;3.80;;;;;;;;;;5092840;28;20992;-68
2024/01/23 07:02:18;;;;;;;19.53;4.33;;;;;;;;;;5095429;28;20453;-67
2024/01/23 07:04:44;;;;;;;16.50;4.60;;;;;;;;;;5105368;28;20494;-68
2024/01/23 07:07:11;;;;;;;23.87;6.17;;;;;;;;;;5103878;28;20498;-68
2024/01/23 07:09:37;;;;;;;14.97;4.00;;;;;;;;;;5099586;28;20444;-68
2024/01/23 07:12:04;;;;;;;15.80;4.17;;;;;;;;;;5098036;28;20459;-72
2024/01/23 07:14:31;;;;;;;15.47;4.67;;;;;;;;;;5093877;28;20497;-69
2024/01/23 07:16:57;;;;;;;11.73;4.50;;;;;;;;;;5105330;28;20620;-69
2024/01/23 07:19:25;;;;;;;21.17;4.13;;;;;;;;;;5101719;28;20442;-68
2024/01/23 07:21:51;;;;;;;15.10;7.10;;;;;;;;;;5091250;28;20471;-66
2024/01/23 07:24:18;;;;;;;19.03;4.60;;;;;;;;;;5095098;28;20447;-66
2024/01/23 07:26:45;;;;;;;10.57;3.70;;;;;;;;;;5095609;28;20459;-67
2024/01/23 07:29:11;;;;;;;14.70;3.97;;;;;;;;;;5092703;28;20447;-67
2024/01/23 07:31:39;;;;;;;11.90;4.23;;;;;;;;;;5097764;28;20530;-69
2024/01/23 07:34:07;;;;;;;16.50;4.23;;;;;;;;;;5099231;28;20463;-68
2024/01/23 07:36:35;;;;;;;13.77;5.03;;;;;;;;;;5097914;28;20463;-68
2024/01/23 07:39:01;;;;;;;12.60;3.57;;;;;;;;;;5093107;28;20482;-67
2024/01/23 07:41:28;;;;;;;22.83;5.40;;;;;;;;;;5100230;28;20573;-67
2024/01/23 07:43:54;;;;;;;20.57;4.63;;;;;;;;;;5102013;28;21240;-69
2024/01/23 07:46:22;;;;;;;16.73;4.50;;;;;;;;;;5097212;28;20485;-69
2024/01/23 07:48:49;;;;;;;11.50;4.07;;;;;;;;;;5102622;28;20482;-67
2024/01/23 07:51:15;;;;;;;11.50;4.00;;;;;;;;;;5094473;28;20480;-67
2024/01/23 07:53:45;;;;;;;21.83;4.20;;;;;;;;;;5098753;28;20486;-67
2024/01/23 07:56:11;;;;;;;18.07;4.60;;;;;;;;;;5096250;28;20519;-67
2024/01/23 07:58:37;;;;;;;14.67;4.50;;;;;;;;;;5098910;28;20532;-67
2024/01/23 08:01:04;;;;;;;12.93;4.97;;;;;;;;;;5099098;28;20447;-67
2024/01/23 08:03:31;;;;;;;22.10;5.20;;;;;;;;;;5094962;28;20458;-67
2024/01/23 08:05:57;;;;;;;21.30;4.23;;;;;;;;;;5098708;28;20967;-67
2024/01/23 08:08:24;;;;;;;14.67;4.20;;;;;;;;;;5098082;28;20482;-69
2024/01/23 08:10:52;;;;;;;13.77;5.33;;;;;;;;;;5095246;28;20459;-71
2024/01/23 08:13:20;;;;;;;14.80;4.20;;;;;;;;;;5105348;28;20713;-68
2024/01/23 08:15:47;;;;;;;17.80;3.93;;;;;;;;;;5103096;28;20474;-69
2024/01/23 08:18:13;;;;;;;10.97;4.13;;;;;;;;;;5104801;28;20482;-67
2024/01/23 08:20:40;;;;;;;21.40;4.27;;;;;;;;;;5084802;28;20460;-68
2024/01/23 08:23:06;;;;;;;13.33;4.00;;;;;;;;;;5097395;28;20583;-68
2024/01/23 08:25:34;;;;;;;19.50;5.60;;;;;;;;;;5097766;28;20451;-69
2024/01/23 08:28:02;;;;;;;18.67;4.60;;;;;;;;;;5103002;28;20466;-67
2024/01/23 08:30:28;;;;;;;21.27;3.90;;;;;;;;;;5101027;28;20496;-67
2024/01/23 08:32:54;;;;;;;13.13;3.40;;;;;;;;;;5098551;28;20490;-68
2024/01/23 08:35:21;;;;;;;15.47;4.07;;;;;;;;;;5097937;28;20494;-68
2024/01/23 08:37:47;;;;;;;14.83;4.57;;;;;;;;;;5097225;28;20507;-69
2024/01/23 08:40:15;;;;;;;19.80;4.97;;;;;;;;;;5097328;28;20487;-71
2024/01/23 08:42:42;;;;;;;12.90;4.07;;;;;;;;;;5096922;28;20455;-71
2024/01/23 08:45:10;;;;;;;11.30;4.40;;;;;;;;;;5096031;28;20444;-68
2024/01/23 08:47:36;;;;;;;19.97;4.10;;;;;;;;;;5082407;28;20471;-73
2024/01/23 08:50:03;;;;;;;13.73;4.23;;;;;;;;;;5095429;28;20907;-71
2024/01/23 08:52:30;;;;;;;16.37;4.40;;;;;;;;;;5097083;28;20459;-70
2024/01/23 08:54:56;;;;;;;20.70;4.80;;;;;;;;;;5097786;28;21027;-70
2024/01/23 08:57:23;;;;;;;13.03;4.50;;;;;;;;;;5097717;28;20450;-69
2024/01/23 08:59:50;;;;;;;18.50;4.40;;;;;;;;;;5094522;28;20463;-66
2024/01/23 09:02:17;;;;;;;16.00;3.87;;;;;;;;;;5097175;28;20465;-69
2024/01/23 09:04:44;;;;;;;24.37;4.93;;;;;;;;;;5096982;28;20954;-69
2024/01/23 09:07:10;;;;;;;15.83;4.50;;;;;;;;;;5090419;28;20466;-69
2024/01/23 09:09:37;;;;;;;14.30;4.13;;;;;;;;;;5100822;28;20454;-70
2024/01/23 09:12:03;;;;;;;14.73;3.70;;;;;;;;;;5098137;28;20495;-69
2024/01/23 09:14:30;;;;;;;12.63;4.43;;;;;;;;;;5095579;28;20470;-66
2024/01/23 09:16:56;;;;;;;9.50;3.93;;;;;;;;;;5089959;28;20480;-67
2024/01/23 09:19:24;;;;;;;15.27;5.00;;;;;;;;;;5097470;28;20461;-67
2024/01/23 09:21:51;;;;;;;20.10;4.63;;;;;;;;;;5093307;28;20512;-67
2024/01/23 09:24:17;;;;;;;14.67;4.77;;;;;;;;;;5092686;28;20477;-66
2024/01/23 09:26:43;;;;;;;12.70;4.40;;;;;;;;;;5102549;28;20497;-66
2024/01/23 09:29:10;;;;;;;19.70;4.20;;;;;;;;;;5104000;28;20479;-68
2024/01/23 09:31:44;;;;;;;14.80;4.97;;;;;;;;;;5098964;28;20821;-68
2024/01/23 09:34:10;;;;;;;12.57;4.50;;;;;;;;;;5099762;28;20799;-68
2024/01/23 09:36:38;;;;;;;14.87;4.37;;;;;;;;;;5091924;28;20527;-66
2024/01/23 09:39:04;;;;;;;17.33;6.43;;;;;;;;;;5095808;28;21278;-68
2024/01/23 09:41:31;;;;;;;22.40;4.40;;;;;;;;;;5096826;28;20454;-63
2024/01/23 09:43:58;;;;;;;14.97;5.70;;;;;;;;;;5086871;28;20466;-65
2024/01/23 09:46:25;;;;;;;18.60;4.50;;;;;;;;;;5094902;28;21003;-64
2024/01/23 09:48:52;;;;;;;14.07;6.53;;;;;;;;;;5096691;28;20835;-66
2024/01/23 09:51:19;;;;;;;14.63;4.10;;;;;;;;;;5097841;28;20459;-64
2024/01/23 09:53:47;;;;;;;13.03;4.53;;;;;;;;;;5095581;28;20776;-66
2024/01/23 09:56:14;;;;;;;19.73;4.53;;;;;;;;;;5092935;28;20479;-64
2024/01/23 09:58:41;;;;;;;17.43;5.60;;;;;;;;;;5097022;28;20458;-64
2024/01/23 10:01:08;;;;;;;18.73;4.97;;;;;;;;;;5097123;28;20447;-64
2024/01/23 10:03:34;;;;;;;22.53;5.20;;;;;;;;;;5095114;28;20468;-66
2024/01/23 10:06:01;;;;;;;21.70;5.77;;;;;;;;;;5107146;28;20538;-63
2024/01/23 10:08:27;;;;;;;19.20;4.60;;;;;;;;;;5094443;28;20468;-65
2024/01/23 10:10:59;;;;;;;20.20;5.60;;;;;;;;;;5098200;28;20462;-63
2024/01/23 10:13:26;;;;;;;14.33;4.37;;;;;;;;;;5096134;28;20465;-65
2024/01/23 10:15:52;;;;;;;16.70;4.57;;;;;;;;;;5095030;28;20485;-66
2024/01/23 10:18:19;;;;;;;12.83;5.33;;;;;;;;;;5095070;28;20458;-66
2024/01/23 10:20:46;;;;;;;15.87;5.40;;;;;;;;;;5095644;28;20475;-66
2024/01/23 10:23:13;;;;;;;18.43;4.53;;;;;;;;;;5096710;28;20451;-64
2024/01/23 10:25:40;;;;;;;13.00;4.80;;;;;;;;;;5099054;28;20470;-65
2024/01/23 10:28:09;;;;;;;17.10;4.57;;;;;;;;;;5100389;28;20574;-66
2024/01/23 10:30:36;;;;;;;19.70;4.53;;;;;;;;;;5103165;28;20446;-66
2024/01/23 10:33:03;;;;;;;23.73;4.87;;;;;;;;;;5099367;28;20454;-65
2024/01/23 10:35:33;;;;;;;16.03;4.70;;;;;;;;;;5097363;28;20533;-65
2024/01/23 10:38:00;;;;;;;11.80;3.67;;;;;;;;;;5099857;28;20458;-65
2024/01/23 10:40:27;;;;;;;16.17;4.40;;;;;;;;;;5099769;28;20510;-65
2024/01/23 10:42:53;;;;;;;18.10;4.70;;;;;;;;;;5095740;28;20455;-66
2024/01/23 10:45:21;;;;;;;11.77;5.03;;;;;;;;;;5110052;28;20820;-68
2024/01/23 10:47:48;;;;;;;16.40;4.57;;;;;;;;;;5100145;28;20471;-66
2024/01/23 10:50:14;;;;;;;17.90;4.67;;;;;;;;;;5099371;28;20497;-64
2024/01/23 10:52:45;;;;;;;9.20;4.10;;;;;;;;;;5107337;28;20489;-65
2024/01/23 10:55:12;;;;;;;18.23;4.10;;;;;;;;;;5098014;28;20531;-65
2024/01/23 10:57:39;;;;;;;14.00;4.50;;;;;;;;;;5106267;28;20513;-65
2024/01/23 11:00:07;;;;;;;16.27;4.50;;;;;;;;;;5096495;28;20463;-65
2024/01/23 11:02:38;;;;;;;17.37;4.60;;;;;;;;;;5098206;28;20449;-67
2024/01/23 11:05:05;;;;;;;19.93;7.20;;;;;;;;;;5099355;28;20508;-66
2024/01/23 11:07:35;;;;;;;21.47;5.53;;;;;;;;;;5092256;28;20488;-66
2024/01/23 11:10:05;;;;;;;18.73;4.70;;;;;;;;;;5100966;28;20486;-65
2024/01/23 11:12:38;;;;;;;15.60;6.13;;;;;;;;;;5102914;28;20495;-66
2024/01/23 11:15:10;;;;;;;15.63;6.07;;;;;;;;;;5107199;28;20491;-66
2024/01/23 11:17:39;;;;;;;18.67;4.63;;;;;;;;;;5101032;28;20482;-67
2024/01/23 11:20:07;;;;;;;14.13;3.90;;;;;;;;;;5098699;28;20455;-67
2024/01/23 11:22:33;;;;;;;16.70;6.97;;;;;;;;;;5102059;28;20958;-67
2024/01/23 11:25:00;;;;;;;12.63;4.70;;;;;;;;;;5093699;28;20485;-68
2024/01/23 11:27:26;;;;;;;19.57;5.50;;;;;;;;;;5107122;28;21114;-69
2024/01/23 11:29:53;;;;;;;20.10;4.47;;;;;;;;;;5095498;28;20479;-68
2024/01/23 11:32:22;;;;;;;15.23;4.10;;;;;;;;;;5105939;28;20481;-69
2024/01/23 11:34:58;;;;;;;16.87;4.67;;;;;;;;;;5098313;28;20526;-69
2024/01/23 11:37:49;;;;;;;14.13;4.97;;;;;;;;;;5101043;28;20554;-68
2024/01/23 11:40:35;;;;;;;16.27;4.70;;;;;;;;;;5102190;28;20483;-68
2024/01/23 11:43:03;;;;;;;18.30;4.40;;;;;;;;;;5099334;28;20459;-68
2024/01/23 11:45:30;;;;;;;12.17;4.57;;;;;;;;;;5107259;28;20453;-69
2024/01/23 11:47:57;;;;;;;14.20;4.67;;;;;;;;;;5104134;28;20473;-68
2024/01/23 11:50:26;;;;;;;23.60;5.50;;;;;;;;;;5091087;28;20487;-69
2024/01/23 11:52:53;;;;;;;16.70;4.70;;;;;;;;;;5095819;28;20479;-69
2024/01/23 11:55:20;;;;;;;20.20;5.23;;;;;;;;;;5093892;28;20516;-69
2024/01/23 11:57:47;;;;;;;25.13;4.90;;;;;;;;;;5106334;28;20479;-68
2024/01/23 12:00:14;;;;;;;16.70;4.43;;;;;;;;;;5099061;28;20950;-69
2024/01/23 12:02:41;;;;;;;18.53;6.10;;;;;;;;;;5093833;28;21251;-69
2024/01/23 12:05:08;;;;;;;16.83;4.70;;;;;;;;;;5097155;28;22431;-68
2024/01/23 12:07:37;;;;;;;15.43;5.63;;;;;;;;;;5104552;28;20485;-68
2024/01/23 12:10:04;;;;;;;14.67;6.13;;;;;;;;;;5097642;28;20460;-68
2024/01/23 12:12:30;;;;;;;19.47;5.80;;;;;;;;;;5099192;28;20684;-68
2024/01/23 12:14:57;;;;;;;19.77;4.40;;;;;;;;;;5096162;28;20496;-68
2024/01/23 12:17:23;;;;;;;14.20;4.30;;;;;;;;;;5097144;28;20503;-68
2024/01/23 12:19:50;;;;;;;17.63;4.80;;;;;;;;;;5095099;28;20467;-69
2024/01/23 12:22:17;;;;;;;22.77;5.50;;;;;;;;;;5099260;28;20509;-68
2024/01/23 12:24:45;;;;;;;13.27;4.63;;;;;;;;;;5100447;28;20512;-67
2024/01/23 12:27:11;;;;;;;17.07;5.40;;;;;;;;;;5107366;28;20495;-68
2024/01/23 12:29:38;;;;;;;19.67;5.30;;;;;;;;;;5108582;28;20506;-68
2024/01/23 12:32:05;;;;;;;14.53;4.40;;;;;;;;;;5102508;28;21070;-69
2024/01/23 12:34:31;;;;;;;12.10;3.97;;;;;;;;;;5103375;28;21078;-69
2024/01/23 12:37:00;;;;;;;18.50;5.37;;;;;;;;;;5102658;28;20534;-68
2024/01/23 12:39:28;;;;;;;17.70;6.10;;;;;;;;;;5105240;28;20470;-68
2024/01/23 12:41:56;;;;;;;10.63;4.37;;;;;;;;;;5106193;28;20466;-65
2024/01/23 12:44:22;;;;;;;13.97;5.87;;;;;;;;;;5102499;28;20456;-66
2024/01/23 12:46:50;;;;;;;18.37;5.17;;;;;;;;;;5104472;28;20468;-66
2024/01/23 12:49:18;;;;;;;17.63;4.90;;;;;;;;;;5107437;28;20455;-65
2024/01/23 12:51:47;;;;;;;17.23;4.73;;;;;;;;;;5094885;28;20460;-66
2024/01/23 12:54:13;;;;;;;15.33;6.10;;;;;;;;;;5088349;28;20513;-67
2024/01/23 12:56:40;;;;;;;13.93;4.70;;;;;;;;;;5095270;28;20506;-63
2024/01/23 12:59:08;;;;;;;12.33;4.50;;;;;;;;;;5092943;28;20471;-64
2024/01/23 13:01:34;;;;;;;15.30;5.13;;;;;;;;;;5096137;28;20474;-64
2024/01/23 13:04:01;;;;;;;17.57;5.33;;;;;;;;;;5096384;28;20467;-64
2024/01/23 13:06:28;;;;;;;17.20;5.00;;;;;;;;;;5094705;28;20508;-64
2024/01/23 13:08:54;;;;;;;12.83;4.40;;;;;;;;;;5097258;28;20518;-63
2024/01/23 13:11:20;;;;;;;17.50;5.90;;;;;;;;;;5097109;28;21320;-67
2024/01/23 13:13:48;;;;;;;15.10;5.03;;;;;;;;;;5087180;28;20463;-66
2024/01/23 13:16:15;;;;;;;18.47;4.37;;;;;;;;;;5093073;28;20489;-65
2024/01/23 13:18:42;;;;;;;18.17;5.40;;;;;;;;;;5097220;28;20477;-64
2024/01/23 13:21:08;;;;;;;15.07;4.70;;;;;;;;;;5093790;28;20463;-64
2024/01/23 13:23:35;;;;;;;13.87;5.17;;;;;;;;;;5096139;28;20486;-64
2024/01/23 13:26:01;;;;;;;16.63;6.10;;;;;;;;;;5097218;28;20431;-64
2024/01/23 13:28:28;;;;;;;21.07;5.10;;;;;;;;;;5097365;28;20451;-65
2024/01/23 13:30:54;;;;;;;11.23;5.30;;;;;;;;;;5096594;28;20986;-67
2024/01/23 13:33:22;;;;;;;19.10;5.70;;;;;;;;;;5094917;28;20477;-67
2024/01/23 13:35:49;;;;;;;19.60;5.10;;;;;;;;;;5095706;28;20485;-64
2024/01/23 13:38:15;;;;;;;25.47;6.47;;;;;;;;;;5094532;28;20543;-64
2024/01/23 13:40:42;;;;;;;21.97;7.00;;;;;;;;;;5096898;28;20482;-63
2024/01/23 13:43:08;;;;;;;20.20;5.97;;;;;;;;;;5097807;28;20483;-64
2024/01/23 13:45:34;;;;;;;14.87;6.70;;;;;;;;;;5096517;28;20459;-64
2024/01/23 13:48:03;;;;;;;16.47;6.73;;;;;;;;;;5097852;28;20439;-66
2024/01/23 13:50:31;;;;;;;14.73;5.57;;;;;;;;;;5098710;28;21093;-65
2024/01/23 13:52:58;;;;;;;16.40;5.40;;;;;;;;;;5092261;28;20499;-65
2024/01/23 13:55:25;;;;;;;17.93;5.13;;;;;;;;;;5094364;28;20447;-66
2024/01/23 13:57:52;;;;;;;17.87;5.70;;;;;;;;;;5097454;28;20470;-66
2024/01/23 14:00:20;;;;;;;18.33;6.33;;;;;;;;;;5102712;28;20794;-63
2024/01/23 14:02:47;;;;;;;18.37;7.70;;;;;;;;;;5096628;28;20955;-66
2024/01/23 14:05:14;;;;;;;17.43;7.50;;;;;;;;;;5100750;28;20465;-70
2024/01/23 14:07:42;;;;;;;24.47;6.30;;;;;;;;;;5100172;28;20909;-64
2024/01/23 14:10:09;;;;;;;13.23;6.23;;;;;;;;;;5098010;28;20451;-66
2024/01/23 14:12:36;;;;;;;24.87;5.90;;;;;;;;;;5094233;28;20454;-71
2024/01/23 14:15:04;;;;;;;19.63;6.63;;;;;;;;;;5099955;28;20447;-68
2024/01/23 14:17:30;;;;;;;21.00;6.00;;;;;;;;;;5096576;28;20485;-68
2024/01/23 14:19:56;;;;;;;17.97;5.60;;;;;;;;;;5088595;28;20513;-66
2024/01/23 14:22:23;;;;;;;24.70;6.57;;;;;;;;;;5097147;28;20458;-69
2024/01/23 14:24:51;;;;;;;15.20;8.47;;;;;;;;;;5096606;28;20431;-67
2024/01/23 14:27:18;;;;;;;17.20;4.87;;;;;;;;;;5088729;28;20460;-66
2024/01/23 14:29:44;;;;;;;14.80;5.77;;;;;;;;;;5100146;28;20474;-66
2024/01/23 14:32:11;;;;;;;17.97;4.77;;;;;;;;;;5101108;28;20907;-65